Time;durP1;ratioP1;P1;durP2;ratioP2;P2;SDS_P1;SDS_P2;PMS_P1;PMS_P2;Temp;Humidity;BMP_temperature;BMP_pressure;BME280_temperature;BME280_humidity;BME280_pressure;Samples;Min_cycle;Max_cycle;Signal;HPM_P1;HPM_P2
2023/07/18 00:01:32;;;;;;;2.30;2.00;;;15.70;99.90;;;;;;5033554;28;20469;-52
2023/07/18 00:03:59;;;;;;;3.63;2.67;;;15.80;99.90;;;;;;5035883;28;20474;-52
2023/07/18 00:06:26;;;;;;;2.47;1.70;;;15.70;99.90;;;;;;5031924;28;20578;-51
2023/07/18 00:08:53;;;;;;;2.17;1.80;;;15.80;99.90;;;;;;5031979;28;20465;-52
2023/07/18 00:11:22;;;;;;;3.57;2.20;;;15.70;99.90;;;;;;5037944;28;20538;-51
2023/07/18 00:13:48;;;;;;;4.50;2.20;;;15.70;99.90;;;;;;5033917;28;20467;-51
2023/07/18 00:16:15;;;;;;;5.13;2.33;;;15.70;99.90;;;;;;5033167;28;20482;-51
2023/07/18 00:18:41;;;;;;;4.50;2.20;;;15.60;99.90;;;;;;5033997;28;20577;-51
2023/07/18 00:21:08;;;;;;;2.20;1.70;;;15.60;99.90;;;;;;5034115;28;20550;-51
2023/07/18 00:23:36;;;;;;;6.00;2.07;;;15.60;99.90;;;;;;5033273;28;20462;-51
2023/07/18 00:26:02;;;;;;;4.57;2.03;;;15.50;99.90;;;;;;5033529;28;20932;-51
2023/07/18 00:28:29;;;;;;;3.17;1.70;;;15.50;99.90;;;;;;5033741;28;20554;-51
2023/07/18 00:30:55;;;;;;;5.73;2.90;;;15.50;99.90;;;;;;5032715;28;20458;-51
2023/07/18 00:33:22;;;;;;;4.10;2.30;;;15.50;99.90;;;;;;5039592;28;21027;-51
2023/07/18 00:35:49;;;;;;;2.57;2.40;;;15.50;99.90;;;;;;5032343;28;20490;-51
2023/07/18 00:38:15;;;;;;;5.30;2.53;;;15.40;99.90;;;;;;5031380;28;20565;-51
2023/07/18 00:40:43;;;;;;;5.30;1.83;;;15.40;99.90;;;;;;5033638;28;20980;-51
2023/07/18 00:43:13;;;;;;;4.33;2.17;;;15.40;99.90;;;;;;5032665;28;20463;-51
2023/07/18 00:45:40;;;;;;;3.90;2.17;;;15.30;99.90;;;;;;5030661;28;20487;-51
2023/07/18 00:48:07;;;;;;;2.07;1.90;;;15.30;99.90;;;;;;5031076;28;20542;-51
2023/07/18 00:50:34;;;;;;;4.20;2.40;;;15.30;99.90;;;;;;5031778;28;20915;-51
2023/07/18 00:53:01;;;;;;;4.00;2.50;;;15.30;99.90;;;;;;5030067;28;20462;-51
2023/07/18 00:55:28;;;;;;;4.80;1.90;;;15.20;99.90;;;;;;5030681;28;20481;-50
2023/07/18 00:57:58;;;;;;;2.63;2.30;;;15.10;99.90;;;;;;5032878;28;21070;-51
2023/07/18 01:00:24;;;;;;;10.80;2.63;;;15.10;99.90;;;;;;5035620;28;20553;-51
2023/07/18 01:02:51;;;;;;;3.83;2.50;;;15.10;99.90;;;;;;5034460;28;20964;-51
2023/07/18 01:05:19;;;;;;;2.83;2.00;;;15.10;99.90;;;;;;5032165;28;20514;-52
2023/07/18 01:07:46;;;;;;;6.30;3.60;;;15.10;99.90;;;;;;5032022;28;20498;-52
2023/07/18 01:10:14;;;;;;;3.57;1.83;;;15.10;99.90;;;;;;5032998;28;20462;-51
2023/07/18 01:12:41;;;;;;;3.27;2.30;;;15.00;99.90;;;;;;5031279;28;20498;-50
2023/07/18 01:15:12;;;;;;;4.13;2.70;;;14.90;99.90;;;;;;5032543;28;20570;-50
2023/07/18 01:17:44;;;;;;;7.20;2.13;;;14.90;99.90;;;;;;5032197;28;20514;-51
2023/07/18 01:20:16;;;;;;;4.40;2.40;;;14.90;99.90;;;;;;5030731;28;20463;-51
2023/07/18 01:22:44;;;;;;;7.90;2.53;;;14.90;99.90;;;;;;5033413;28;20832;-51
2023/07/18 01:25:14;;;;;;;2.40;2.20;;;14.80;99.90;;;;;;5032777;28;20540;-51
2023/07/18 01:27:41;;;;;;;2.47;2.27;;;14.80;99.90;;;;;;5033313;28;20529;-51
2023/07/18 01:30:09;;;;;;;3.30;2.33;;;14.70;99.90;;;;;;5032899;28;20554;-51
2023/07/18 01:32:35;;;;;;;3.60;2.23;;;14.60;99.90;;;;;;5032064;28;20486;-51
2023/07/18 01:35:08;;;;;;;3.27;2.30;;;14.70;99.90;;;;;;5033198;28;20486;-51
2023/07/18 01:37:35;;;;;;;4.30;2.23;;;14.70;99.90;;;;;;5032171;28;20986;-51
2023/07/18 01:40:05;;;;;;;6.00;2.30;;;14.70;99.90;;;;;;5026552;28;20470;-51
2023/07/18 01:42:31;;;;;;;7.43;2.50;;;14.60;99.90;;;;;;5031912;28;20461;-51
2023/07/18 01:44:58;;;;;;;2.20;2.00;;;14.60;99.90;;;;;;5025419;28;20923;-51
2023/07/18 01:47:24;;;;;;;7.80;2.20;;;14.50;99.90;;;;;;5030562;28;20550;-52
2023/07/18 01:49:51;;;;;;;4.20;2.20;;;14.50;99.90;;;;;;5035666;28;20549;-51
2023/07/18 01:52:17;;;;;;;3.83;2.83;;;14.50;99.90;;;;;;5027477;28;20549;-50
2023/07/18 01:54:44;;;;;;;3.40;3.10;;;14.50;99.90;;;;;;5031105;28;20512;-51
2023/07/18 01:57:12;;;;;;;4.50;2.90;;;14.40;98.50;;;;;;5026638;28;20546;-51
2023/07/18 01:59:39;;;;;;;5.97;3.03;;;14.40;98.20;;;;;;5030947;28;20490;-51
2023/07/18 02:02:06;;;;;;;5.57;2.67;;;14.40;94.70;;;;;;5026257;28;20557;-52
2023/07/18 02:04:35;;;;;;;2.87;2.47;;;14.30;88.80;;;;;;5032290;28;20876;-51
2023/07/18 02:07:02;;;;;;;4.03;2.73;;;14.30;85.40;;;;;;5028972;28;20894;-52
2023/07/18 02:09:28;;;;;;;3.23;2.60;;;14.20;81.70;;;;;;5030827;28;20540;-52
2023/07/18 02:11:55;;;;;;;5.53;2.90;;;14.30;79.50;;;;;;5031082;28;20458;-51
2023/07/18 02:14:23;;;;;;;3.07;2.77;;;14.20;77.20;;;;;;5030740;28;20542;-51
2023/07/18 02:16:50;;;;;;;5.23;2.80;;;14.20;73.70;;;;;;5036569;28;20513;-51
2023/07/18 02:19:16;;;;;;;5.07;2.53;;;14.10;69.40;;;;;;5028654;28;20545;-52
2023/07/18 02:21:43;;;;;;;2.93;2.20;;;14.10;64.30;;;;;;5030615;28;20463;-51
2023/07/18 02:24:10;;;;;;;4.50;2.43;;;14.00;58.80;;;;;;5030183;28;20458;-51
2023/07/18 02:26:37;;;;;;;6.97;3.33;;;14.00;57.30;;;;;;5030538;28;21186;-51
2023/07/18 02:29:04;;;;;;;5.63;2.70;;;14.00;51.10;;;;;;5029069;28;21004;-51
2023/07/18 02:31:32;;;;;;;6.97;2.50;;;14.10;50.70;;;;;;5032483;28;20557;-52
2023/07/18 02:33:59;;;;;;;2.97;2.70;;;14.00;50.90;;;;;;5030624;28;20533;-51
2023/07/18 02:36:25;;;;;;;4.57;2.57;;;14.00;49.20;;;;;;5031651;28;21066;-53
2023/07/18 02:38:52;;;;;;;8.23;2.90;;;13.90;45.80;;;;;;5027425;28;20574;-54
2023/07/18 02:41:19;;;;;;;4.80;2.80;;;14.00;43.10;;;;;;5031704;28;20832;-56
2023/07/18 02:43:46;;;;;;;3.33;2.60;;;13.90;42.50;;;;;;5029527;28;20490;-53
2023/07/18 02:46:12;;;;;;;2.57;2.37;;;13.80;36.50;;;;;;5030452;28;20944;-53
2023/07/18 02:48:40;;;;;;;5.33;2.80;;;13.90;36.60;;;;;;5030662;28;20538;-54
2023/07/18 02:51:07;;;;;;;4.40;2.83;;;13.80;34.90;;;;;;5032677;28;20466;-55
2023/07/18 02:53:33;;;;;;;2.63;2.43;;;13.80;33.60;;;;;;5030351;28;20501;-54
2023/07/18 02:56:00;;;;;;;4.43;3.00;;;13.80;28.40;;;;;;5029492;28;20517;-54
2023/07/18 02:58:27;;;;;;;4.40;2.87;;;13.80;27.60;;;;;;5028764;28;20569;-54
2023/07/18 03:00:53;;;;;;;5.70;2.63;;;13.80;25.60;;;;;;5027375;28;20551;-54
2023/07/18 03:03:22;;;;;;;3.47;2.80;;;13.80;26.30;;;;;;5027844;28;20549;-55
2023/07/18 03:05:52;;;;;;;3.00;2.27;;;13.80;25.90;;;;;;5027807;28;21050;-55
2023/07/18 03:08:18;;;;;;;3.70;2.90;;;13.70;24.00;;;;;;5026019;28;20543;-56
2023/07/18 03:10:45;;;;;;;3.83;2.80;;;13.70;23.80;;;;;;5030187;28;20709;-56
2023/07/18 03:13:12;;;;;;;3.87;2.70;;;13.70;22.70;;;;;;5027914;28;20554;-54
2023/07/18 03:15:39;;;;;;;3.73;2.40;;;13.60;85.70;;;;;;5026453;28;20483;-54
2023/07/18 03:18:06;;;;;;;3.10;2.90;;;13.60;99.90;;;;;;5030033;28;20513;-54
2023/07/18 03:20:32;;;;;;;4.97;2.67;;;13.50;99.90;;;;;;5029705;28;20494;-55
2023/07/18 03:23:01;;;;;;;3.77;2.70;;;13.50;99.90;;;;;;5029401;28;20830;-54
2023/07/18 03:25:28;;;;;;;3.73;3.20;;;13.50;99.90;;;;;;5028567;28;20482;-55
2023/07/18 03:27:54;;;;;;;6.67;2.83;;;13.50;99.90;;;;;;5029479;28;20498;-54
2023/07/18 03:30:21;;;;;;;2.67;2.47;;;13.50;99.90;;;;;;5028483;28;20499;-53
2023/07/18 03:32:48;;;;;;;4.23;3.13;;;13.50;99.90;;;;;;5029664;28;20509;-54
2023/07/18 03:35:15;;;;;;;6.30;3.90;;;13.50;99.90;;;;;;5031907;28;20541;-56
2023/07/18 03:37:42;;;;;;;5.47;3.00;;;13.50;99.90;;;;;;5034412;28;20895;-55
2023/07/18 03:40:11;;;;;;;2.87;2.63;;;13.40;99.90;;;;;;5033400;28;20486;-55
2023/07/18 03:42:37;;;;;;;3.20;2.73;;;13.40;99.90;;;;;;5029274;28;20498;-56
2023/07/18 03:45:04;;;;;;;5.13;3.30;;;13.40;99.90;;;;;;5036903;28;20578;-54
2023/07/18 03:47:31;;;;;;;3.40;2.63;;;13.50;99.90;;;;;;5027062;28;20466;-56
2023/07/18 03:49:58;;;;;;;2.60;2.40;;;13.50;99.90;;;;;;5034280;28;20486;-55
2023/07/18 03:52:24;;;;;;;6.80;3.00;;;13.50;99.90;;;;;;5034539;28;21207;-53
2023/07/18 03:54:51;;;;;;;3.43;2.93;;;13.50;99.90;;;;;;5036120;28;21028;-54
2023/07/18 03:57:18;;;;;;;4.03;3.07;;;13.50;99.90;;;;;;5034255;28;20494;-53
2023/07/18 03:59:45;;;;;;;5.90;3.30;;;13.40;99.90;;;;;;5031804;28;20569;-56
2023/07/18 04:02:14;;;;;;;4.53;3.40;;;13.40;99.90;;;;;;5034666;28;20530;-54
2023/07/18 04:04:41;;;;;;;7.40;3.17;;;13.40;99.90;;;;;;5031021;28;20546;-55
2023/07/18 04:07:07;;;;;;;6.00;2.60;;;13.50;99.90;;;;;;5032977;28;20459;-55
2023/07/18 04:09:34;;;;;;;8.30;3.80;;;13.50;99.90;;;;;;5032521;28;20494;-55
2023/07/18 04:12:01;;;;;;;5.00;3.10;;;13.50;99.90;;;;;;5034288;28;20830;-54
2023/07/18 04:14:28;;;;;;;3.20;2.90;;;13.60;99.90;;;;;;5032194;28;21046;-55
2023/07/18 04:16:55;;;;;;;4.63;3.13;;;13.50;99.90;;;;;;5033455;28;20510;-54
2023/07/18 04:19:21;;;;;;;4.60;3.07;;;13.60;99.90;;;;;;5032159;28;20578;-56
2023/07/18 04:21:48;;;;;;;3.80;3.13;;;13.60;99.90;;;;;;5034063;28;20490;-54
2023/07/18 04:24:14;;;;;;;3.63;3.33;;;13.70;99.90;;;;;;5031478;28;20463;-56
2023/07/18 04:26:41;;;;;;;4.27;2.90;;;13.70;99.90;;;;;;5032493;28;20522;-55
2023/07/18 04:29:08;;;;;;;5.80;4.00;;;13.70;99.90;;;;;;5031608;28;20478;-54
2023/07/18 04:31:36;;;;;;;4.10;3.33;;;13.70;99.90;;;;;;5031395;28;20490;-55
2023/07/18 04:34:02;;;;;;;4.93;3.97;;;13.70;99.90;;;;;;5033810;28;20906;-54
2023/07/18 04:36:29;;;;;;;10.60;3.70;;;13.80;99.90;;;;;;5035389;28;20526;-54
2023/07/18 04:38:55;;;;;;;3.97;3.47;;;13.80;99.90;;;;;;5033190;28;21076;-55
2023/07/18 04:41:22;;;;;;;3.03;2.70;;;13.80;99.90;;;;;;5033679;28;20493;-54
2023/07/18 04:43:48;;;;;;;6.60;3.30;;;13.90;99.90;;;;;;5030193;28;20561;-54
2023/07/18 04:46:16;;;;;;;4.00;3.30;;;13.90;99.90;;;;;;5031639;28;21039;-55
2023/07/18 04:48:43;;;;;;;5.27;3.33;;;13.90;99.90;;;;;;5032173;28;20443;-54
2023/07/18 04:51:10;;;;;;;4.20;2.80;;;13.90;99.90;;;;;;5033910;28;20458;-56
2023/07/18 04:53:36;;;;;;;5.60;3.30;;;14.00;99.90;;;;;;5028216;28;20516;-55
2023/07/18 04:56:04;;;;;;;5.23;3.77;;;14.00;99.90;;;;;;5032860;28;21023;-55
2023/07/18 04:58:30;;;;;;;5.10;2.93;;;14.00;99.90;;;;;;5041944;28;20516;-55
2023/07/18 05:00:59;;;;;;;3.00;2.40;;;14.10;99.90;;;;;;5033222;28;20908;-55
2023/07/18 05:03:26;;;;;;;6.57;3.50;;;14.10;99.90;;;;;;5030280;28;21015;-54
2023/07/18 05:05:54;;;;;;;5.00;3.17;;;14.20;99.90;;;;;;5029093;28;20482;-55
2023/07/18 05:08:21;;;;;;;8.77;3.63;;;14.20;99.90;;;;;;5036590;28;20521;-54
2023/07/18 05:10:48;;;;;;;6.33;3.50;;;14.30;99.90;;;;;;5032797;28;20930;-55
2023/07/18 05:13:14;;;;;;;4.27;3.20;;;14.40;99.90;;;;;;5032982;28;20499;-55
2023/07/18 05:15:42;;;;;;;7.00;3.50;;;14.50;99.90;;;;;;5032438;28;20569;-53
2023/07/18 05:18:09;;;;;;;3.50;3.00;;;14.40;99.90;;;;;;5030198;28;21022;-54
2023/07/18 05:20:35;;;;;;;4.00;3.17;;;14.50;99.90;;;;;;5029277;28;20577;-54
2023/07/18 05:23:03;;;;;;;5.70;4.43;;;14.60;99.90;;;;;;5016266;28;20557;-55
2023/07/18 05:25:30;;;;;;;5.97;3.40;;;14.70;76.40;;;;;;5029005;28;20893;-54
2023/07/18 05:27:58;;;;;;;7.40;3.37;;;14.80;73.80;;;;;;5032581;28;20498;-55
2023/07/18 05:30:24;;;;;;;6.50;4.10;;;14.80;21.10;;;;;;5032570;28;20837;-54
2023/07/18 05:32:53;;;;;;;10.30;3.63;;;14.90;20.20;;;;;;5031869;28;20458;-56
2023/07/18 05:35:19;;;;;;;5.33;3.30;;;15.10;20.70;;;;;;5030601;28;21062;-53
2023/07/18 05:37:46;;;;;;;5.13;3.43;;;15.20;33.30;;;;;;5030656;28;20541;-54
2023/07/18 05:40:15;;;;;;;7.33;3.47;;;15.30;31.70;;;;;;5031784;28;20553;-53
2023/07/18 05:42:42;;;;;;;8.77;4.43;;;15.30;31.50;;;;;;5031349;28;20462;-55
2023/07/18 05:45:10;;;;;;;5.00;3.80;;;15.40;36.50;;;;;;5031134;28;20889;-56
2023/07/18 05:47:37;;;;;;;5.20;3.60;;;15.40;33.90;;;;;;5034540;28;20495;-55
2023/07/18 05:50:05;;;;;;;5.30;3.40;;;15.40;30.80;;;;;;5033174;28;20927;-56
2023/07/18 05:52:32;;;;;;;9.33;4.10;;;15.40;33.80;;;;;;5028333;28;20538;-55
2023/07/18 05:54:58;;;;;;;8.13;3.80;;;15.50;38.70;;;;;;5028757;28;20513;-55
2023/07/18 05:57:26;;;;;;;6.17;3.70;;;15.60;38.00;;;;;;5030990;28;20459;-54
2023/07/18 05:59:53;;;;;;;13.53;4.50;;;15.60;37.40;;;;;;5030369;28;20566;-54
2023/07/18 06:02:20;;;;;;;8.60;3.97;;;15.70;42.10;;;;;;5030433;28;20490;-53
2023/07/18 06:04:47;;;;;;;4.83;3.50;;;15.80;42.70;;;;;;5029310;28;20482;-55
2023/07/18 06:07:14;;;;;;;4.30;3.63;;;15.80;42.90;;;;;;5029292;28;20550;-55
2023/07/18 06:09:40;;;;;;;11.63;4.83;;;15.90;45.00;;;;;;5031358;28;20469;-55
2023/07/18 06:12:08;;;;;;;5.03;3.50;;;15.90;51.30;;;;;;5026260;28;20925;-55
2023/07/18 06:14:36;;;;;;;9.60;4.33;;;15.90;51.80;;;;;;5029015;28;20525;-53
2023/07/18 06:17:03;;;;;;;4.50;3.60;;;15.90;52.50;;;;;;5027656;28;20543;-53
2023/07/18 06:19:29;;;;;;;10.93;4.10;;;15.90;47.50;;;;;;5026940;28;20477;-53
2023/07/18 06:21:57;;;;;;;12.63;4.87;;;16.00;47.10;;;;;;5025118;28;20501;-54
2023/07/18 06:24:24;;;;;;;7.70;3.57;;;16.10;52.10;;;;;;5027539;28;20463;-53
2023/07/18 06:26:50;;;;;;;5.10;4.07;;;16.10;51.40;;;;;;5030840;28;20836;-54
2023/07/18 06:29:18;;;;;;;7.27;4.30;;;16.20;53.50;;;;;;5029204;28;20965;-53
2023/07/18 06:31:46;;;;;;;10.40;4.70;;;16.30;58.30;;;;;;5022229;28;20465;-55
2023/07/18 06:34:13;;;;;;;9.43;3.80;;;16.30;65.70;;;;;;5024286;28;20912;-55
2023/07/18 06:36:39;;;;;;;6.80;4.00;;;16.40;67.70;;;;;;5030502;28;20569;-55
2023/07/18 06:39:06;;;;;;;10.07;4.73;;;16.50;74.90;;;;;;5029042;28;20525;-54
2023/07/18 06:41:33;;;;;;;7.00;3.73;;;16.50;75.60;;;;;;5029852;28;20494;-54
2023/07/18 06:43:59;;;;;;;7.23;3.93;;;16.60;79.40;;;;;;5029785;28;20524;-54
2023/07/18 06:46:26;;;;;;;5.43;3.80;;;16.60;83.40;;;;;;5026617;28;20490;-54
2023/07/18 06:48:54;;;;;;;8.30;3.70;;;16.70;82.80;;;;;;5028663;28;20550;-54
2023/07/18 06:51:20;;;;;;;10.13;4.20;;;16.70;85.90;;;;;;5027550;28;21059;-54
2023/07/18 06:53:47;;;;;;;7.93;4.00;;;16.80;91.20;;;;;;5026665;28;20502;-55
2023/07/18 06:56:13;;;;;;;15.77;4.30;;;16.90;97.40;;;;;;5024088;28;20514;-55
2023/07/18 06:58:41;;;;;;;9.33;3.67;;;17.00;91.90;;;;;;5027845;28;20510;-54
2023/07/18 07:01:08;;;;;;;11.10;4.00;;;17.10;95.40;;;;;;5025169;28;20482;-54
2023/07/18 07:03:36;;;;;;;14.30;4.07;;;17.20;93.80;;;;;;5025666;28;20458;-54
2023/07/18 07:06:09;;;;;;;7.67;3.33;;;17.10;99.90;;;;;;5025544;28;20561;-51
2023/07/18 07:08:36;;;;;;;7.10;3.73;;;17.20;99.90;;;;;;5028397;28;20462;-51
2023/07/18 07:11:06;;;;;;;18.20;4.30;;;17.30;99.90;;;;;;5027076;28;20494;-54
2023/07/18 07:13:34;;;;;;;11.73;4.10;;;17.40;99.90;;;;;;5027404;28;20971;-51
2023/07/18 07:16:01;;;;;;;4.87;2.57;;;17.50;99.90;;;;;;5027383;28;20521;-51
2023/07/18 07:18:27;;;;;;;4.10;3.00;;;17.60;99.90;;;;;;5029158;28;20462;-52
2023/07/18 07:20:54;;;;;;;20.03;4.10;;;17.60;99.90;;;;;;5027776;28;20514;-52
2023/07/18 07:23:22;;;;;;;8.57;4.27;;;17.70;99.90;;;;;;5027535;28;20463;-52
2023/07/18 07:25:49;;;;;;;10.53;3.63;;;17.80;99.90;;;;;;5027101;28;20518;-52
2023/07/18 07:28:15;;;;;;;5.03;3.23;;;17.90;99.90;;;;;;5028633;28;20470;-54
2023/07/18 07:30:42;;;;;;;13.70;3.83;;;18.00;99.90;;;;;;5026188;28;20509;-55
2023/07/18 07:33:08;;;;;;;5.03;3.40;;;18.10;99.90;;;;;;5025723;28;20889;-54
2023/07/18 07:35:35;;;;;;;12.40;3.57;;;18.10;99.90;;;;;;5024941;28;22544;-54
2023/07/18 07:38:01;;;;;;;5.40;3.70;;;18.10;99.90;;;;;;5026970;28;20494;-51
2023/07/18 07:40:29;;;;;;;5.30;3.67;;;18.20;99.90;;;;;;5026199;28;20552;-55
2023/07/18 07:42:56;;;;;;;9.17;4.47;;;18.40;99.90;;;;;;5025543;28;20474;-54
2023/07/18 07:45:23;;;;;;;6.30;3.70;;;18.50;99.90;;;;;;5027313;28;20518;-55
2023/07/18 07:47:49;;;;;;;12.93;4.10;;;18.60;99.90;;;;;;5029480;28;20463;-51
2023/07/18 07:50:16;;;;;;;5.93;3.80;;;18.70;99.90;;;;;;5026755;28;20491;-54
2023/07/18 07:52:43;;;;;;;6.80;4.50;;;18.80;99.90;;;;;;5025316;28;20493;-53
2023/07/18 07:55:11;;;;;;;6.73;3.80;;;18.90;99.90;;;;;;5020805;28;20478;-54
2023/07/18 07:57:39;;;;;;;6.67;3.60;;;19.00;99.90;;;;;;5030367;28;20988;-52
2023/07/18 08:00:07;;;;;;;11.33;4.20;;;19.10;99.90;;;;;;5027172;28;20536;-51
2023/07/18 08:02:34;;;;;;;6.97;3.97;;;19.10;25.40;;;;;;5023817;28;20466;-55
2023/07/18 08:05:01;;;;;;;7.10;3.50;;;19.20;25.20;;;;;;5021898;28;20565;-55
2023/07/18 08:07:27;;;;;;;7.93;4.20;;;19.30;77.50;;;;;;5020717;28;20469;-56
2023/07/18 08:09:54;;;;;;;11.63;3.93;;;19.30;22.10;;;;;;5026603;28;20482;-55
2023/07/18 08:12:22;;;;;;;6.70;4.20;;;19.30;35.50;;;;;;5025762;28;20999;-54
2023/07/18 08:14:49;;;;;;;12.87;4.50;;;19.30;38.00;;;;;;5024338;28;20463;-51
2023/07/18 08:17:16;;;;;;;11.03;3.50;;;19.40;47.60;;;;;;5017850;28;20462;-53
2023/07/18 08:19:43;;;;;;;5.80;3.90;;;19.40;62.50;;;;;;5027048;28;21018;-53
2023/07/18 08:22:10;;;;;;;5.10;3.13;;;19.30;72.60;;;;;;5023387;28;20502;-52
2023/07/18 08:24:37;;;;;;;7.87;3.40;;;19.60;67.60;;;;;;5028027;28;20486;-51
2023/07/18 08:27:04;;;;;;;6.77;3.60;;;19.80;73.90;;;;;;5027281;28;20825;-52
2023/07/18 08:29:31;;;;;;;5.93;3.60;;;20.00;82.70;;;;;;5029374;28;21003;-53
2023/07/18 08:31:59;;;;;;;6.93;3.67;;;20.10;94.30;;;;;;5028937;28;20547;-52
2023/07/18 08:34:26;;;;;;;5.67;3.30;;;19.90;96.10;;;;;;5028556;28;20470;-57
2023/07/18 08:36:52;;;;;;;6.23;2.37;;;19.80;86.90;;;;;;5023072;28;20486;-51
2023/07/18 08:39:19;;;;;;;17.50;4.00;;;19.80;98.50;;;;;;5039098;28;20483;-51
2023/07/18 08:41:49;;;;;;;9.93;3.03;;;20.00;99.90;;;;;;5032713;28;20490;-51
2023/07/18 08:44:17;;;;;;;9.10;2.80;;;20.30;99.90;;;;;;5029031;28;20459;-51
2023/07/18 08:46:46;;;;;;;3.83;2.77;;;20.20;99.90;;;;;;5031369;28;20517;-51
2023/07/18 08:49:14;;;;;;;7.23;2.87;;;20.20;99.90;;;;;;5028013;28;20478;-50
2023/07/18 08:51:41;;;;;;;2.77;2.30;;;20.00;99.90;;;;;;5030781;28;20462;-50
2023/07/18 08:54:08;;;;;;;7.10;2.37;;;20.20;99.90;;;;;;5028671;28;20862;-50
2023/07/18 08:56:35;;;;;;;8.27;2.97;;;20.50;99.90;;;;;;5027484;28;20589;-50
2023/07/18 08:59:02;;;;;;;8.53;2.37;;;20.30;99.90;;;;;;5029642;28;20965;-50
2023/07/18 09:01:29;;;;;;;3.50;2.27;;;20.30;99.90;;;;;;5032889;28;20594;-50
2023/07/18 09:03:55;;;;;;;2.80;2.20;;;20.40;99.90;;;;;;5027375;28;20498;-51
2023/07/18 09:06:24;;;;;;;2.40;1.87;;;20.70;99.90;;;;;;5030743;28;20860;-51
2023/07/18 09:08:51;;;;;;;2.97;2.17;;;21.00;99.90;;;;;;5027941;28;20459;-51
2023/07/18 09:11:21;;;;;;;3.20;2.37;;;21.20;99.90;;;;;;5029524;28;20542;-51
2023/07/18 09:13:48;;;;;;;5.57;2.20;;;21.50;99.90;;;;;;5028869;28;20505;-51
2023/07/18 09:16:17;;;;;;;6.33;2.73;;;21.70;99.90;;;;;;5027125;28;20506;-51
2023/07/18 09:18:45;;;;;;;6.23;2.47;;;22.10;99.90;;;;;;5028955;28;20513;-51
2023/07/18 09:21:12;;;;;;;5.50;2.80;;;21.90;99.90;;;;;;5031140;28;20906;-51
2023/07/18 09:23:45;;;;;;;7.60;3.30;;;22.10;99.90;;;;;;5030015;28;20466;-51
2023/07/18 09:26:14;;;;;;;11.03;5.33;;;21.80;99.90;;;;;;5029105;28;20574;-51
2023/07/18 09:28:41;;;;;;;6.60;3.37;;;21.90;99.90;;;;;;5024437;28;20464;-52
2023/07/18 09:31:18;;;;;;;12.30;4.07;;;22.10;99.90;;;;;;5028833;28;20584;-51
2023/07/18 09:33:46;;;;;;;3.87;2.30;;;22.30;99.90;;;;;;5029929;28;20960;-52
2023/07/18 09:36:17;;;;;;;3.50;2.73;;;22.20;99.90;;;;;;5024414;28;20578;-51
2023/07/18 09:38:46;;;;;;;4.10;1.90;;;22.30;99.90;;;;;;5029995;28;20486;-50
2023/07/18 09:41:14;;;;;;;8.63;2.60;;;22.50;99.90;;;;;;5022925;28;20909;-50
2023/07/18 09:43:42;;;;;;;7.73;2.20;;;22.60;99.90;;;;;;5028975;28;20558;-50
2023/07/18 09:46:11;;;;;;;1.80;1.70;;;22.80;99.90;;;;;;5014078;28;22195;-51
2023/07/18 09:48:39;;;;;;;4.73;2.40;;;22.80;99.90;;;;;;5028213;28;20494;-51
2023/07/18 09:51:09;;;;;;;8.57;2.40;;;22.60;99.90;;;;;;5027352;28;20589;-51
2023/07/18 09:53:36;;;;;;;4.57;2.97;;;22.70;99.90;;;;;;5024493;28;20940;-51
2023/07/18 09:56:06;;;;;;;3.37;2.70;;;23.20;99.90;;;;;;5029151;28;20513;-51
2023/07/18 09:58:38;;;;;;;5.93;2.30;;;23.30;99.90;;;;;;5015285;28;20983;-50
2023/07/18 10:01:09;;;;;;;4.17;2.10;;;23.50;99.90;;;;;;5026978;28;21186;-51
2023/07/18 10:03:37;;;;;;;5.27;1.90;;;23.20;99.90;;;;;;5029200;28;20703;-52
2023/07/18 10:06:05;;;;;;;4.80;2.57;;;23.30;99.90;;;;;;5030382;28;20482;-52
2023/07/18 10:08:33;;;;;;;3.00;2.10;;;23.50;99.90;;;;;;5026988;28;20474;-52
2023/07/18 10:11:02;;;;;;;3.87;2.20;;;23.20;99.90;;;;;;5029643;28;20455;-52
2023/07/18 10:13:31;;;;;;;4.77;2.00;;;22.50;99.90;;;;;;5029838;28;20968;-52
2023/07/18 10:16:17;;;;;;;2.43;2.00;;;22.50;99.90;;;;;;5030754;28;20482;-52
2023/07/18 10:18:47;;;;;;;1.80;1.70;;;22.80;99.90;;;;;;5028272;28;20632;-52
2023/07/18 10:21:15;;;;;;;1.30;1.30;;;23.20;99.90;;;;;;5030394;28;20552;-51
2023/07/18 10:23:43;;;;;;;5.07;1.63;;;23.50;99.90;;;;;;5029714;28;20513;-52
2023/07/18 10:26:10;;;;;;;2.10;1.83;;;23.90;99.90;;;;;;5029828;28;20568;-52
2023/07/18 10:28:45;;;;;;;3.37;2.10;;;24.20;99.90;;;;;;5031236;28;20502;-52
2023/07/18 10:31:27;;;;;;;1.73;1.60;;;24.30;99.90;;;;;;5030013;28;20482;-52
2023/07/18 10:34:07;;;;;;;1.70;1.60;;;24.10;99.90;;;;;;5029155;28;20466;-52
2023/07/18 10:36:36;;;;;;;2.40;1.90;;;23.50;99.90;;;;;;5026654;28;20494;-52
2023/07/18 10:39:12;;;;;;;3.53;2.03;;;23.90;99.90;;;;;;5030546;28;20933;-52
2023/07/18 10:41:42;;;;;;;4.93;2.20;;;25.00;99.90;;;;;;5031326;28;20485;-52
2023/07/18 10:44:12;;;;;;;1.83;1.60;;;24.80;99.90;;;;;;5024861;28;20517;-51
2023/07/18 10:46:40;;;;;;;4.17;2.07;;;24.50;99.90;;;;;;5029875;28;20544;-52
2023/07/18 10:49:07;;;;;;;2.37;2.07;;;23.80;99.90;;;;;;5029225;28;20953;-52
2023/07/18 10:51:35;;;;;;;3.50;2.00;;;24.60;99.90;;;;;;5029845;28;20454;-52
2023/07/18 10:54:02;;;;;;;3.60;1.90;;;24.80;99.90;;;;;;5024373;28;20568;-51
2023/07/18 10:56:29;;;;;;;10.47;1.70;;;25.70;99.90;;;;;;5023833;28;20510;-52
2023/07/18 10:58:56;;;;;;;1.50;1.23;;;24.90;99.90;;;;;;5027686;28;20490;-52
2023/07/18 11:01:26;;;;;;;5.40;1.90;;;24.50;99.90;;;;;;5027718;28;20485;-51
2023/07/18 11:03:52;;;;;;;3.20;2.07;;;24.80;99.90;;;;;;5011972;28;20463;-53
2023/07/18 11:06:21;;;;;;;11.03;1.77;;;24.10;99.90;;;;;;5026738;28;21107;-52
2023/07/18 11:08:48;;;;;;;1.83;1.37;;;24.70;99.90;;;;;;5027090;28;21213;-52
2023/07/18 11:11:18;;;;;;;5.03;1.90;;;25.10;99.90;;;;;;5027448;28;20459;-51
2023/07/18 11:13:44;;;;;;;7.70;2.33;;;25.00;99.90;;;;;;5027675;28;20466;-51
2023/07/18 11:16:13;;;;;;;1.60;1.40;;;23.90;99.90;;;;;;5028852;28;20559;-53
2023/07/18 11:18:43;;;;;;;6.00;1.33;;;24.30;99.90;;;;;;5027455;28;20498;-53
2023/07/18 11:21:10;;;;;;;3.53;1.90;;;24.60;99.90;;;;;;5020779;28;20597;-52
2023/07/18 11:23:38;;;;;;;2.47;2.27;;;24.70;99.90;;;;;;5026589;28;21000;-52
2023/07/18 11:26:15;;;;;;;15.93;2.00;;;24.10;99.90;;;;;;5023070;28;20609;-52
2023/07/18 11:28:44;;;;;;;1.73;1.63;;;23.90;99.90;;;;;;5019451;28;20461;-52
2023/07/18 11:31:24;;;;;;;3.17;1.90;;;24.20;99.90;;;;;;5023408;28;20489;-52
2023/07/18 11:33:53;;;;;;;3.33;1.70;;;24.40;99.90;;;;;;5028803;28;21237;-51
2023/07/18 11:36:21;;;;;;;1.97;1.53;;;24.90;99.90;;;;;;5025429;28;20530;-51
2023/07/18 11:38:49;;;;;;;3.80;1.37;;;24.90;99.90;;;;;;5028565;28;20865;-52
2023/07/18 11:41:31;;;;;;;9.23;2.13;;;24.50;99.90;;;;;;5027316;28;20527;-52
2023/07/18 11:43:58;;;;;;;2.90;2.47;;;24.10;99.90;;;;;;5023348;28;20466;-52
2023/07/18 11:46:37;;;;;;;2.80;1.80;;;23.90;99.90;;;;;;5026894;28;20478;-52
2023/07/18 11:49:05;;;;;;;5.57;2.50;;;24.00;99.90;;;;;;5018715;28;20830;-51
2023/07/18 11:51:32;;;;;;;7.47;2.33;;;24.50;99.90;;;;;;5024777;28;20501;-52
2023/07/18 11:54:00;;;;;;;3.73;2.10;;;24.50;99.90;;;;;;5028017;28;20545;-52
2023/07/18 11:56:26;;;;;;;4.53;1.77;;;24.00;99.90;;;;;;5027583;28;20613;-52
2023/07/18 11:58:53;;;;;;;5.30;1.80;;;23.80;99.90;;;;;;5029794;28;20549;-52
2023/07/18 12:01:19;;;;;;;2.87;2.00;;;23.80;99.90;;;;;;5028118;28;20544;-52
2023/07/18 12:03:46;;;;;;;2.47;2.00;;;24.40;99.90;;;;;;5028686;28;20509;-52
2023/07/18 12:06:14;;;;;;;1.87;1.77;;;24.90;99.90;;;;;;5032471;28;20565;-52
2023/07/18 12:08:40;;;;;;;3.87;2.00;;;24.60;99.90;;;;;;5030129;28;20494;-52
2023/07/18 12:11:09;;;;;;;3.17;1.60;;;25.00;99.90;;;;;;5031309;28;20486;-52
2023/07/18 12:13:36;;;;;;;6.40;1.87;;;25.20;99.90;;;;;;5031690;28;20516;-52
2023/07/18 12:16:02;;;;;;;1.53;1.40;;;25.20;99.90;;;;;;5029185;28;20993;-52
2023/07/18 12:18:29;;;;;;;2.30;1.00;;;25.10;99.90;;;;;;5027614;28;20553;-52
2023/07/18 12:20:55;;;;;;;2.80;1.60;;;24.80;99.90;;;;;;5026172;28;20578;-52
2023/07/18 12:23:25;;;;;;;2.83;1.30;;;24.20;99.90;;;;;;5026601;28;20541;-52
2023/07/18 12:25:51;;;;;;;3.43;1.93;;;23.90;99.90;;;;;;5031969;28;20506;-52
2023/07/18 12:28:18;;;;;;;1.83;1.30;;;23.70;99.90;;;;;;5030302;28;20482;-52
2023/07/18 12:30:44;;;;;;;1.47;1.37;;;23.40;99.90;;;;;;5032772;28;20503;-52
2023/07/18 12:33:12;;;;;;;5.70;1.73;;;22.80;99.90;;;;;;5036456;28;20490;-52
2023/07/18 12:35:38;;;;;;;2.33;1.10;;;22.80;99.90;;;;;;5031931;28;20529;-51
2023/07/18 12:38:06;;;;;;;6.13;1.50;;;22.80;99.90;;;;;;5032247;28;20980;-52
2023/07/18 12:40:34;;;;;;;3.33;1.43;;;22.80;99.90;;;;;;5029966;28;20462;-49
2023/07/18 12:43:01;;;;;;;2.17;1.33;;;22.90;99.90;;;;;;5030060;28;21015;-50
2023/07/18 12:45:28;;;;;;;4.47;1.50;;;23.00;99.90;;;;;;5025834;28;20510;-50
2023/07/18 12:47:55;;;;;;;1.90;1.60;;;23.30;99.90;;;;;;5030369;28;20459;-51